Island Lake, Canada
Current Conditions -  °F | °C
As of 3:00 AM on Thursday 27 Nov 2014 (Local Time) from CYIV Reporting Station
Clear Clear  
Wind Chill: -29°   Ceiling: Unl
Heat Index: -17°   Visibility: 15mi
Dew Point: -22°   Wind: 5mph
Humidity: 76%   Direction: 250°WSW
Pressure: 30.38"   Gusts: NA
Location:  53.85°N, 94.65°W
Report Text: CYIV 270900Z 25004KT 15SM SKC M27/M30 A3038 RMK SLP322
Loading
Personal Weather Stations






























Interactive Weather Map New forecast layout! Learn more

10-Day Weather Forecast

Advertisements
Track Severe Weather on mobile